メインページ
METAR-TAF:

METAR-TAF

空港 :

コンゴーニャス空港

サンパウロ, サンパウロ州, ブラジル

緯度: 23-37S, 経度: 046-39W, 海抜: 803m

現時点の気象観測

当レポートは25分前の21:00(UTC)に作成
南/南東の風 11kt
気温 15°C
湿度 88%
気圧 1027 hPa
視程: 9000m
高度600ftの曇り

METAR: SBSP 162100Z 16011KT 9000 OVC006 15/13 Q1027

時間: 18:25 (21:25 UTC)

予報

当レポートは5時間22分前の16:03(UTC)に作成
予報は16日の 18時(UTC)から 17日の 18時(UTC)まで有効
南/南東の風 10kt
視程: 8000m
高度1100ftの千切れ雲あり
確率 40%
16日の 21時(UTC)から 17日の 01時(UTC)まで
高度700ftの曇り
霧雨
17日の 01時(UTC)から 17日の 03時(UTC)まで徐々に
南/南東の風 7kt
高度700ftの千切れ雲あり
確率 30%
17日の 08時(UTC)から 17日の 10時(UTC)まで
視程: 5000m
高度500ftの千切れ雲あり
霧雨, 靄
17日の 11時(UTC)から 17日の 13時(UTC)まで徐々に
南/南東の風 10kt
高度1100ftの千切れ雲あり
17日の 15時(UTC)から 17日の 17時(UTC)まで徐々に
高度1400ftの千切れ雲あり

TAF: SBSP 161603Z 1618/1718 16010KT 8000 BKN011 TX17/1618Z TN14/1705Z PROB40 1621/1701 DZ OVC007 BECMG 1701/1703 16007KT BKN007 PROB30 1708/1710 5000 DZ BR BKN005 BECMG 1711/1713 16010KT BKN011 BECMG 1715/1717 BKN014 RMK PGM

4,000以上の空港の気象観測と天気予報(METAR報とTAF報)

利用可能な観測所は地図上に黄色い丸と赤い丸で示す。

丸の上にカーソルを重ねると観測所名を参照できる。

次にクリックすると気象観測と天気予報を参照できる。

マップの切り替え:黒色「×」印の緑ボタンをクリックして拡大、「-」印の緑ボタンをクリックして縮小、緑色の三角印をクリックして隣りの地図に切り替え


METAR-TAF: